sensor_id;sensor_type;location;lat;lon;timestamp;pressure;altitude;pressure_sealevel;temperature;humidity
62779;BME280;48821;48.796;2.396;2023-07-31T12:25:23;101042.78;;;20.73;66.07
62779;BME280;48821;48.796;2.396;2023-07-31T12:26:34;101051.38;;;20.90;65.72
62779;BME280;48821;48.796;2.396;2023-07-31T12:27:45;101042.31;;;21.06;65.15
62779;BME280;48821;48.796;2.396;2023-07-31T12:28:56;101034.97;;;21.21;64.50
62779;BME280;48821;48.796;2.396;2023-07-31T12:30:26;101050.38;;;21.42;64.35
62779;BME280;48821;48.796;2.396;2023-07-31T12:31:41;101043.88;;;21.57;63.85
62779;BME280;48821;48.796;2.396;2023-07-31T12:32:52;101048.19;;;21.72;63.30
62779;BME280;48821;48.796;2.396;2023-07-31T12:34:03;101048.09;;;21.85;62.94
62779;BME280;48821;48.796;2.396;2023-07-31T12:35:13;101059.59;;;21.98;62.89
62779;BME280;48821;48.796;2.396;2023-07-31T12:36:24;101040.91;;;22.10;63.14
62779;BME280;48821;48.796;2.396;2023-07-31T12:37:35;101046.13;;;22.23;62.75
62779;BME280;48821;48.796;2.396;2023-07-31T12:38:46;101040.78;;;22.34;62.47
62779;BME280;48821;48.796;2.396;2023-07-31T12:39:57;101032.03;;;22.44;61.97
62779;BME280;48821;48.796;2.396;2023-07-31T12:41:13;101028.47;;;22.55;61.73
62779;BME280;48821;48.796;2.396;2023-07-31T12:42:24;101020.69;;;22.63;62.65
62779;BME280;48821;48.796;2.396;2023-07-31T12:43:36;101019.25;;;22.70;62.25
62779;BME280;48821;48.796;2.396;2023-07-31T12:44:49;101016.06;;;22.77;62.25
62779;BME280;48821;48.796;2.396;2023-07-31T12:46:00;101015.44;;;22.85;61.73
62779;BME280;48821;48.796;2.396;2023-07-31T12:47:11;101019.31;;;22.92;61.81
62779;BME280;48821;48.796;2.396;2023-07-31T12:48:22;101011.75;;;22.97;62.38
62779;BME280;48821;48.796;2.396;2023-07-31T12:49:32;101016.75;;;23.02;61.51
62779;BME280;48821;48.796;2.396;2023-07-31T12:50:43;101014.53;;;23.07;61.78
62779;BME280;48821;48.796;2.396;2023-07-31T12:51:54;101011.47;;;23.12;60.79
62779;BME280;48821;48.796;2.396;2023-07-31T12:53:05;101014.50;;;23.19;60.78
62779;BME280;48821;48.796;2.396;2023-07-31T12:54:16;101012.28;;;23.24;60.56
62779;BME280;48821;48.796;2.396;2023-07-31T12:55:27;101007.53;;;23.27;60.36
62779;BME280;48821;48.796;2.396;2023-07-31T12:56:39;101005.31;;;23.33;60.79
62779;BME280;48821;48.796;2.396;2023-07-31T12:57:50;100994.19;;;23.37;60.37
62779;BME280;48821;48.796;2.396;2023-07-31T12:59:01;100984.91;;;23.42;59.81
62779;BME280;48821;48.796;2.396;2023-07-31T13:00:12;100980.16;;;23.45;59.59
62779;BME280;48821;48.796;2.396;2023-07-31T13:01:23;100972.59;;;23.51;58.97
62779;BME280;48821;48.796;2.396;2023-07-31T13:02:34;100974.88;;;23.55;58.90
62779;BME280;48821;48.796;2.396;2023-07-31T13:03:45;100966.44;;;23.60;58.75
62779;BME280;48821;48.796;2.396;2023-07-31T13:04:56;100963.47;;;23.63;58.42
62779;BME280;48821;48.796;2.396;2023-07-31T13:06:07;100960.53;;;23.66;58.69
62779;BME280;48821;48.796;2.396;2023-07-31T13:07:18;100969.19;;;23.70;57.99
62779;BME280;48821;48.796;2.396;2023-07-31T13:08:29;100961.84;;;23.72;57.88
62779;BME280;48821;48.796;2.396;2023-07-31T13:09:40;100964.28;;;23.75;57.73
62779;BME280;48821;48.796;2.396;2023-07-31T13:10:50;100954.25;;;23.77;58.00
62779;BME280;48821;48.796;2.396;2023-07-31T13:12:01;100956.69;;;23.80;57.80
62779;BME280;48821;48.796;2.396;2023-07-31T13:13:12;100957.25;;;23.84;57.32
62779;BME280;48821;48.796;2.396;2023-07-31T13:14:23;100953.44;;;23.87;57.65
62779;BME280;48821;48.796;2.396;2023-07-31T13:15:34;100953.31;;;23.88;57.60
62779;BME280;48821;48.796;2.396;2023-07-31T13:16:45;100942.47;;;23.90;57.15
62779;BME280;48821;48.796;2.396;2023-07-31T13:17:56;100944.03;;;23.92;57.25
62779;BME280;48821;48.796;2.396;2023-07-31T13:19:06;100934.00;;;23.94;57.16
62779;BME280;48821;48.796;2.396;2023-07-31T13:20:17;100940.06;;;23.97;57.21
62779;BME280;48821;48.796;2.396;2023-07-31T13:21:28;100936.28;;;23.99;57.03
62779;BME280;48821;48.796;2.396;2023-07-31T13:22:39;100927.97;;;24.02;56.72
62779;BME280;48821;48.796;2.396;2023-07-31T13:23:50;100922.59;;;24.02;56.34
62779;BME280;48821;48.796;2.396;2023-07-31T13:25:01;100934.03;;;24.04;56.59
62779;BME280;48821;48.796;2.396;2023-07-31T13:26:12;100926.69;;;24.07;56.63
62779;BME280;48821;48.796;2.396;2023-07-31T13:27:23;100930.94;;;24.09;56.73
62779;BME280;48821;48.796;2.396;2023-07-31T13:28:34;100930.81;;;24.11;56.33
62779;BME280;48821;48.796;2.396;2023-07-31T13:29:45;100933.47;;;24.11;56.12
62779;BME280;48821;48.796;2.396;2023-07-31T13:30:56;100929.81;;;24.12;56.28
62779;BME280;48821;48.796;2.396;2023-07-31T13:32:07;100938.75;;;24.12;55.89
62779;BME280;48821;48.796;2.396;2023-07-31T13:33:18;100932.25;;;24.15;56.26
62779;BME280;48821;48.796;2.396;2023-07-31T13:34:28;100925.88;;;24.16;55.97
62779;BME280;48821;48.796;2.396;2023-07-31T13:35:39;100927.59;;;24.17;55.58
62779;BME280;48821;48.796;2.396;2023-07-31T13:36:50;100922.22;;;24.17;56.01
62779;BME280;48821;48.796;2.396;2023-07-31T13:38:01;100929.28;;;24.18;55.66
62779;BME280;48821;48.796;2.396;2023-07-31T13:39:12;100925.72;;;24.17;56.02
62779;BME280;48821;48.796;2.396;2023-07-31T13:40:23;100917.69;;;24.17;55.78
62779;BME280;48821;48.796;2.396;2023-07-31T13:41:34;100919.53;;;24.17;55.62
62779;BME280;48821;48.796;2.396;2023-07-31T13:42:45;100921.22;;;24.18;55.77
62779;BME280;48821;48.796;2.396;2023-07-31T13:43:57;100915.00;;;24.17;55.79
62779;BME280;48821;48.796;2.396;2023-07-31T13:45:08;100913.16;;;24.18;55.61
62779;BME280;48821;48.796;2.396;2023-07-31T13:46:18;100908.66;;;24.19;55.56
62779;BME280;48821;48.796;2.396;2023-07-31T13:47:30;100915.72;;;24.20;55.43
62779;BME280;48821;48.796;2.396;2023-07-31T13:48:42;100919.25;;;24.20;55.15
62779;BME280;48821;48.796;2.396;2023-07-31T13:49:53;100918.25;;;24.21;55.31
62779;BME280;48821;48.796;2.396;2023-07-31T13:51:04;100902.16;;;24.21;55.32
62779;BME280;48821;48.796;2.396;2023-07-31T13:52:14;100899.31;;;24.23;55.14
62779;BME280;48821;48.796;2.396;2023-07-31T13:53:25;100903.72;;;24.24;55.20
62779;BME280;48821;48.796;2.396;2023-07-31T13:54:36;100917.13;;;24.24;55.04
62779;BME280;48821;48.796;2.396;2023-07-31T13:55:47;100918.00;;;24.24;54.99
62779;BME280;48821;48.796;2.396;2023-07-31T13:56:59;100909.94;;;24.24;55.26
62779;BME280;48821;48.796;2.396;2023-07-31T13:58:10;100911.66;;;24.25;55.09
62779;BME280;48821;48.796;2.396;2023-07-31T13:59:21;100901.78;;;24.26;54.81
62779;BME280;48821;48.796;2.396;2023-07-31T14:00:32;100901.78;;;24.26;54.81
62779;BME280;48821;48.796;2.396;2023-07-31T14:01:43;100902.63;;;24.26;54.84
62779;BME280;48821;48.796;2.396;2023-07-31T14:02:53;100893.56;;;24.27;54.65
62779;BME280;48821;48.796;2.396;2023-07-31T14:04:04;100896.25;;;24.27;54.77
62779;BME280;48821;48.796;2.396;2023-07-31T14:05:15;100895.28;;;24.28;54.62
62779;BME280;48821;48.796;2.396;2023-07-31T14:06:26;100895.13;;;24.30;54.74
62779;BME280;48821;48.796;2.396;2023-07-31T14:07:37;100885.25;;;24.31;54.75
62779;BME280;48821;48.796;2.396;2023-07-31T14:08:48;100897.00;;;24.30;54.68
62779;BME280;48821;48.796;2.396;2023-07-31T14:09:59;100889.75;;;24.30;54.73
62779;BME280;48821;48.796;2.396;2023-07-31T14:11:10;100872.81;;;24.30;54.84
62779;BME280;48821;48.796;2.396;2023-07-31T14:12:20;100887.94;;;24.31;54.46
62779;BME280;48821;48.796;2.396;2023-07-31T14:13:31;100882.56;;;24.31;54.78
62779;BME280;48821;48.796;2.396;2023-07-31T14:14:42;100871.81;;;24.31;54.44
62779;BME280;48821;48.796;2.396;2023-07-31T14:15:53;100879.75;;;24.32;54.54
62779;BME280;48821;48.796;2.396;2023-07-31T14:17:04;100873.53;;;24.32;54.42
62779;BME280;48821;48.796;2.396;2023-07-31T14:18:15;100875.22;;;24.33;54.39
62779;BME280;48821;48.796;2.396;2023-07-31T14:19:26;100860.94;;;24.32;54.14
62779;BME280;48821;48.796;2.396;2023-07-31T14:20:37;100867.16;;;24.33;54.22
62779;BME280;48821;48.796;2.396;2023-07-31T14:21:48;100875.22;;;24.33;54.62
62779;BME280;48821;48.796;2.396;2023-07-31T14:22:59;100878.75;;;24.33;54.65
62779;BME280;48821;48.796;2.396;2023-07-31T14:24:09;100883.25;;;24.33;55.03
62779;BME280;48821;48.796;2.396;2023-07-31T14:25:20;100877.88;;;24.33;54.36
62779;BME280;48821;48.796;2.396;2023-07-31T14:26:31;100877.88;;;24.33;54.48
62779;BME280;48821;48.796;2.396;2023-07-31T14:27:42;100872.53;;;24.33;54.40
62779;BME280;48821;48.796;2.396;2023-07-31T14:28:53;100877.06;;;24.32;54.42
62779;BME280;48821;48.796;2.396;2023-07-31T14:30:04;100883.25;;;24.33;54.70
62779;BME280;48821;48.796;2.396;2023-07-31T14:31:15;100873.38;;;24.33;54.91
62779;BME280;48821;48.796;2.396;2023-07-31T14:32:26;100871.69;;;24.32;55.36
62779;BME280;48821;48.796;2.396;2023-07-31T14:33:37;100874.22;;;24.34;55.90
62779;BME280;48821;48.796;2.396;2023-07-31T14:34:47;100866.31;;;24.32;55.39
62779;BME280;48821;48.796;2.396;2023-07-31T14:35:58;100873.53;;;24.32;56.26
62779;BME280;48821;48.796;2.396;2023-07-31T14:37:09;100867.31;;;24.31;56.35
62779;BME280;48821;48.796;2.396;2023-07-31T14:38:20;100864.63;;;24.31;56.69
62779;BME280;48821;48.796;2.396;2023-07-31T14:39:31;100862.78;;;24.32;57.75
62779;BME280;48821;48.796;2.396;2023-07-31T14:40:42;100863.75;;;24.31;57.48
62779;BME280;48821;48.796;2.396;2023-07-31T14:41:53;100868.28;;;24.30;57.16
62779;BME280;48821;48.796;2.396;2023-07-31T14:43:04;100857.53;;;24.30;57.59
62779;BME280;48821;48.796;2.396;2023-07-31T14:44:15;100852.16;;;24.30;57.74
62779;BME280;48821;48.796;2.396;2023-07-31T14:45:27;100855.84;;;24.29;57.48
62779;BME280;48821;48.796;2.396;2023-07-31T14:46:38;100847.78;;;24.29;57.82
62779;BME280;48821;48.796;2.396;2023-07-31T14:47:48;100853.16;;;24.29;58.15
62779;BME280;48821;48.796;2.396;2023-07-31T14:48:59;100836.19;;;24.28;57.93
62779;BME280;48821;48.796;2.396;2023-07-31T14:50:10;100832.53;;;24.30;58.36
62779;BME280;48821;48.796;2.396;2023-07-31T14:51:21;100828.13;;;24.28;58.66
62779;BME280;48821;48.796;2.396;2023-07-31T14:52:32;100819.38;;;24.26;58.63
62779;BME280;48821;48.796;2.396;2023-07-31T14:53:43;100825.59;;;24.27;58.60
62779;BME280;48821;48.796;2.396;2023-07-31T14:54:54;100822.91;;;24.27;58.96
62779;BME280;48821;48.796;2.396;2023-07-31T14:56:04;100812.31;;;24.25;58.95
62779;BME280;48821;48.796;2.396;2023-07-31T14:57:16;100817.66;;;24.25;58.67
62779;BME280;48821;48.796;2.396;2023-07-31T14:58:26;100811.41;;;24.25;58.90
62779;BME280;48821;48.796;2.396;2023-07-31T14:59:37;100815.00;;;24.25;59.55
62779;BME280;48821;48.796;2.396;2023-07-31T15:00:48;100812.41;;;24.24;59.85
62779;BME280;48821;48.796;2.396;2023-07-31T15:01:59;100809.03;;;24.22;59.76
62779;BME280;48821;48.796;2.396;2023-07-31T15:03:10;100810.00;;;24.21;60.17
62779;BME280;48821;48.796;2.396;2023-07-31T15:04:21;100809.16;;;24.20;60.18
62779;BME280;48821;48.796;2.396;2023-07-31T15:05:32;100809.31;;;24.19;59.59
62779;BME280;48821;48.796;2.396;2023-07-31T15:06:43;100811.13;;;24.18;59.13
62779;BME280;48821;48.796;2.396;2023-07-31T15:07:53;100813.81;;;24.18;59.66
62779;BME280;48821;48.796;2.396;2023-07-31T15:09:04;100805.91;;;24.16;60.35
62779;BME280;48821;48.796;2.396;2023-07-31T15:10:15;100807.75;;;24.16;59.25
62779;BME280;48821;48.796;2.396;2023-07-31T15:11:26;100808.75;;;24.15;59.33
62779;BME280;48821;48.796;2.396;2023-07-31T15:12:37;100804.34;;;24.14;59.05
62779;BME280;48821;48.796;2.396;2023-07-31T15:13:48;100806.19;;;24.13;59.35
62779;BME280;48821;48.796;2.396;2023-07-31T15:14:58;100796.28;;;24.14;60.36
62779;BME280;48821;48.796;2.396;2023-07-31T15:16:09;100796.28;;;24.14;59.94
62779;BME280;48821;48.796;2.396;2023-07-31T15:17:20;100800.69;;;24.15;58.94
62779;BME280;48821;48.796;2.396;2023-07-31T15:18:31;100798.97;;;24.14;59.38
62779;BME280;48821;48.796;2.396;2023-07-31T15:19:42;100797.28;;;24.13;59.28
62779;BME280;48821;48.796;2.396;2023-07-31T15:20:53;100794.47;;;24.14;60.06
62779;BME280;48821;48.796;2.396;2023-07-31T15:22:04;100797.28;;;24.13;59.61
62779;BME280;48821;48.796;2.396;2023-07-31T15:23:15;100793.63;;;24.14;60.00
62779;BME280;48821;48.796;2.396;2023-07-31T15:24:26;100793.63;;;24.14;59.82
62779;BME280;48821;48.796;2.396;2023-07-31T15:25:37;100808.00;;;24.13;60.29
62779;BME280;48821;48.796;2.396;2023-07-31T15:26:48;100805.31;;;24.13;60.54
62779;BME280;48821;48.796;2.396;2023-07-31T15:27:59;100810.84;;;24.11;60.53
62779;BME280;48821;48.796;2.396;2023-07-31T15:29:10;100809.13;;;24.10;60.03
62779;BME280;48821;48.796;2.396;2023-07-31T15:30:21;100802.94;;;24.10;59.59
62779;BME280;48821;48.796;2.396;2023-07-31T15:31:32;100802.94;;;24.10;60.59
62779;BME280;48821;48.796;2.396;2023-07-31T15:32:44;100795.00;;;24.08;60.25
62779;BME280;48821;48.796;2.396;2023-07-31T15:33:58;100811.97;;;24.09;60.07
62779;BME280;48821;48.796;2.396;2023-07-31T15:35:09;100809.28;;;24.09;60.42
62779;BME280;48821;48.796;2.396;2023-07-31T15:36:19;100820.16;;;24.07;60.26
62779;BME280;48821;48.796;2.396;2023-07-31T15:37:30;100815.78;;;24.06;60.74
62779;BME280;48821;48.796;2.396;2023-07-31T15:38:41;100811.25;;;24.07;61.15
62779;BME280;48821;48.796;2.396;2023-07-31T15:39:52;100815.94;;;24.04;60.46
62779;BME280;48821;48.796;2.396;2023-07-31T15:41:03;100812.25;;;24.05;60.73
62779;BME280;48821;48.796;2.396;2023-07-31T15:42:14;100813.25;;;24.04;60.11
62779;BME280;48821;48.796;2.396;2023-07-31T15:43:25;100809.69;;;24.04;60.52
62779;BME280;48821;48.796;2.396;2023-07-31T15:44:36;100806.16;;;24.03;60.73
62779;BME280;48821;48.796;2.396;2023-07-31T15:45:46;100808.00;;;24.03;60.51
62779;BME280;48821;48.796;2.396;2023-07-31T15:46:58;100804.34;;;24.04;59.99
62779;BME280;48821;48.796;2.396;2023-07-31T15:48:09;100805.19;;;24.04;59.77
62779;BME280;48821;48.796;2.396;2023-07-31T15:49:19;100804.34;;;24.04;58.95
62779;BME280;48821;48.796;2.396;2023-07-31T15:50:30;100805.31;;;24.03;59.94
62779;BME280;48821;48.796;2.396;2023-07-31T15:51:41;100808.13;;;24.01;59.63
62779;BME280;48821;48.796;2.396;2023-07-31T15:52:52;100821.56;;;24.01;60.04
62779;BME280;48821;48.796;2.396;2023-07-31T15:54:03;100816.34;;;24.00;59.88
62779;BME280;48821;48.796;2.396;2023-07-31T15:55:14;100807.44;;;23.99;60.06
62779;BME280;48821;48.796;2.396;2023-07-31T15:56:25;100811.09;;;23.98;59.73
62779;BME280;48821;48.796;2.396;2023-07-31T15:57:36;100811.09;;;23.98;59.75
62779;BME280;48821;48.796;2.396;2023-07-31T15:58:46;100806.72;;;23.97;59.55
62779;BME280;48821;48.796;2.396;2023-07-31T15:59:57;100806.56;;;23.99;59.59
62779;BME280;48821;48.796;2.396;2023-07-31T16:01:08;100806.56;;;23.99;59.31
62779;BME280;48821;48.796;2.396;2023-07-31T16:02:19;100818.16;;;23.99;59.81
62779;BME280;48821;48.796;2.396;2023-07-31T16:03:31;100821.81;;;23.98;60.11
62779;BME280;48821;48.796;2.396;2023-07-31T16:04:41;100808.41;;;23.98;59.74
62779;BME280;48821;48.796;2.396;2023-07-31T16:05:52;100809.41;;;23.97;59.41
62779;BME280;48821;48.796;2.396;2023-07-31T16:07:03;100810.38;;;23.96;60.12
62779;BME280;48821;48.796;2.396;2023-07-31T16:08:14;100796.13;;;23.96;60.14
62779;BME280;48821;48.796;2.396;2023-07-31T16:09:25;100809.53;;;23.96;59.46
62779;BME280;48821;48.796;2.396;2023-07-31T16:10:36;100806.03;;;23.95;60.54
62779;BME280;48821;48.796;2.396;2023-07-31T16:11:47;100808.81;;;23.93;60.14
62779;BME280;48821;48.796;2.396;2023-07-31T16:12:57;100796.25;;;23.94;60.16
62779;BME280;48821;48.796;2.396;2023-07-31T16:14:08;100790.19;;;23.92;60.42
62779;BME280;48821;48.796;2.396;2023-07-31T16:15:19;100784.94;;;23.90;59.84
62779;BME280;48821;48.796;2.396;2023-07-31T16:16:30;100786.78;;;23.90;60.05
62779;BME280;48821;48.796;2.396;2023-07-31T16:17:41;100778.75;;;23.90;59.75
62779;BME280;48821;48.796;2.396;2023-07-31T16:18:52;100772.53;;;23.89;59.83
62779;BME280;48821;48.796;2.396;2023-07-31T16:20:03;100774.34;;;23.89;60.20
62779;BME280;48821;48.796;2.396;2023-07-31T16:21:14;100772.66;;;23.88;59.97
62779;BME280;48821;48.796;2.396;2023-07-31T16:22:25;100768.28;;;23.87;60.44
62779;BME280;48821;48.796;2.396;2023-07-31T16:23:35;100769.41;;;23.84;60.57
62779;BME280;48821;48.796;2.396;2023-07-31T16:24:46;100764.03;;;23.84;61.14
62779;BME280;48821;48.796;2.396;2023-07-31T16:25:57;100765.16;;;23.81;60.45
62779;BME280;48821;48.796;2.396;2023-07-31T16:27:08;100762.47;;;23.81;60.26
62779;BME280;48821;48.796;2.396;2023-07-31T16:28:19;100758.09;;;23.80;60.35
62779;BME280;48821;48.796;2.396;2023-07-31T16:29:30;100759.94;;;23.80;61.22
62779;BME280;48821;48.796;2.396;2023-07-31T16:30:41;100757.38;;;23.78;60.25
62779;BME280;48821;48.796;2.396;2023-07-31T16:31:51;100745.94;;;23.76;59.79
62779;BME280;48821;48.796;2.396;2023-07-31T16:33:02;100743.25;;;23.76;60.60
62779;BME280;48821;48.796;2.396;2023-07-31T16:34:13;100737.03;;;23.76;59.74
62779;BME280;48821;48.796;2.396;2023-07-31T16:35:24;100738.88;;;23.75;59.67
62779;BME280;48821;48.796;2.396;2023-07-31T16:36:35;100738.88;;;23.75;59.70
62779;BME280;48821;48.796;2.396;2023-07-31T16:37:46;100737.03;;;23.76;60.23
62779;BME280;48821;48.796;2.396;2023-07-31T16:38:57;100734.22;;;23.77;59.72
62779;BME280;48821;48.796;2.396;2023-07-31T16:40:08;100739.59;;;23.77;60.76
62779;BME280;48821;48.796;2.396;2023-07-31T16:41:20;100730.53;;;23.78;60.36
62779;BME280;48821;48.796;2.396;2023-07-31T16:42:31;100719.81;;;23.78;61.27
62779;BME280;48821;48.796;2.396;2023-07-31T16:43:42;100718.97;;;23.78;60.82
62779;BME280;48821;48.796;2.396;2023-07-31T16:44:53;100729.72;;;23.78;60.93
62779;BME280;48821;48.796;2.396;2023-07-31T16:46:04;100721.78;;;23.76;61.02
62779;BME280;48821;48.796;2.396;2023-07-31T16:47:15;100730.84;;;23.75;61.21
62779;BME280;48821;48.796;2.396;2023-07-31T16:48:25;100729.84;;;23.76;60.90
62779;BME280;48821;48.796;2.396;2023-07-31T16:49:37;100728.16;;;23.75;61.54
62779;BME280;48821;48.796;2.396;2023-07-31T16:50:48;100727.31;;;23.75;61.61
62779;BME280;48821;48.796;2.396;2023-07-31T16:51:58;100726.59;;;23.73;61.88
62779;BME280;48821;48.796;2.396;2023-07-31T16:53:09;100736.47;;;23.72;60.90
62779;BME280;48821;48.796;2.396;2023-07-31T16:54:20;100732.94;;;23.71;61.65
62779;BME280;48821;48.796;2.396;2023-07-31T16:55:31;100732.06;;;23.71;60.98
62779;BME280;48821;48.796;2.396;2023-07-31T16:56:47;100731.09;;;23.72;61.02
62779;BME280;48821;48.796;2.396;2023-07-31T16:57:58;100728.41;;;23.72;61.71
62779;BME280;48821;48.796;2.396;2023-07-31T16:59:09;100729.41;;;23.71;61.62
62779;BME280;48821;48.796;2.396;2023-07-31T17:00:20;100735.78;;;23.70;61.11
62779;BME280;48821;48.796;2.396;2023-07-31T17:01:31;100732.38;;;23.68;61.48
62779;BME280;48821;48.796;2.396;2023-07-31T17:02:43;100738.88;;;23.65;60.99
62779;BME280;48821;48.796;2.396;2023-07-31T17:03:54;100737.31;;;23.63;61.55
62779;BME280;48821;48.796;2.396;2023-07-31T17:05:05;100732.19;;;23.59;61.83
62779;BME280;48821;48.796;2.396;2023-07-31T17:06:17;100732.47;;;23.56;61.13
62779;BME280;48821;48.796;2.396;2023-07-31T17:07:28;100736.41;;;23.52;61.59
62779;BME280;48821;48.796;2.396;2023-07-31T17:08:39;100720.72;;;23.47;60.88
62779;BME280;48821;48.796;2.396;2023-07-31T17:09:49;100728.16;;;23.44;61.13
62779;BME280;48821;48.796;2.396;2023-07-31T17:11:00;100727.00;;;23.36;61.95
62779;BME280;48821;48.796;2.396;2023-07-31T17:12:11;100732.06;;;23.30;61.88
62779;BME280;48821;48.796;2.396;2023-07-31T17:13:22;100736.13;;;23.24;62.52
62779;BME280;48821;48.796;2.396;2023-07-31T17:14:33;100724.25;;;23.16;61.94
62779;BME280;48821;48.796;2.396;2023-07-31T17:15:44;100719.28;;;23.12;62.67
62779;BME280;48821;48.796;2.396;2023-07-31T17:16:55;100717.88;;;23.08;62.32
62779;BME280;48821;48.796;2.396;2023-07-31T17:18:05;100714.34;;;23.07;63.17
62779;BME280;48821;48.796;2.396;2023-07-31T17:19:16;100708.13;;;23.07;62.99
62779;BME280;48821;48.796;2.396;2023-07-31T17:20:27;100699.97;;;23.08;62.38
62779;BME280;48821;48.796;2.396;2023-07-31T17:21:39;100703.63;;;23.07;62.82
62779;BME280;48821;48.796;2.396;2023-07-31T17:22:49;100699.97;;;23.08;62.55
62779;BME280;48821;48.796;2.396;2023-07-31T17:24:00;100692.78;;;23.09;62.73
62779;BME280;48821;48.796;2.396;2023-07-31T17:25:11;100684.59;;;23.10;62.41
62779;BME280;48821;48.796;2.396;2023-07-31T17:26:23;100677.25;;;23.12;62.34
62779;BME280;48821;48.796;2.396;2023-07-31T17:27:33;100683.22;;;23.16;61.99
62779;BME280;48821;48.796;2.396;2023-07-31T17:28:44;100677.56;;;23.19;62.10
62779;BME280;48821;48.796;2.396;2023-07-31T17:29:55;100672.09;;;23.21;62.38
62779;BME280;48821;48.796;2.396;2023-07-31T17:31:06;100683.50;;;23.23;61.95
62779;BME280;48821;48.796;2.396;2023-07-31T17:32:17;100688.59;;;23.26;62.31
62779;BME280;48821;48.796;2.396;2023-07-31T17:33:28;100682.25;;;23.27;61.92
62779;BME280;48821;48.796;2.396;2023-07-31T17:34:39;100689.31;;;23.28;62.06
62779;BME280;48821;48.796;2.396;2023-07-31T17:35:50;100678.44;;;23.30;62.27
62779;BME280;48821;48.796;2.396;2023-07-31T17:37:01;100674.78;;;23.31;62.30
62779;BME280;48821;48.796;2.396;2023-07-31T17:38:12;100666.59;;;23.32;62.33
62779;BME280;48821;48.796;2.396;2023-07-31T17:39:23;100659.41;;;23.33;62.14
62779;BME280;48821;48.796;2.396;2023-07-31T17:40:33;100670.00;;;23.34;62.30
62779;BME280;48821;48.796;2.396;2023-07-31T17:41:44;100657.44;;;23.35;61.98
62779;BME280;48821;48.796;2.396;2023-07-31T17:42:55;100649.25;;;23.36;62.00
62779;BME280;48821;48.796;2.396;2023-07-31T17:44:06;100648.28;;;23.37;61.56
62779;BME280;48821;48.796;2.396;2023-07-31T17:45:17;100641.91;;;23.38;61.96
62779;BME280;48821;48.796;2.396;2023-07-31T17:46:28;100633.88;;;23.38;62.29
62779;BME280;48821;48.796;2.396;2023-07-31T17:47:39;100624.84;;;23.40;62.04
62779;BME280;48821;48.796;2.396;2023-07-31T17:48:49;100619.47;;;23.40;61.79
62779;BME280;48821;48.796;2.396;2023-07-31T17:50:01;100610.47;;;23.41;61.94
62779;BME280;48821;48.796;2.396;2023-07-31T17:51:11;100618.38;;;23.42;62.09
62779;BME280;48821;48.796;2.396;2023-07-31T17:52:22;100621.75;;;23.44;62.10
62779;BME280;48821;48.796;2.396;2023-07-31T17:53:33;100617.25;;;23.45;61.56
62779;BME280;48821;48.796;2.396;2023-07-31T17:54:44;100612.56;;;23.47;61.17
62779;BME280;48821;48.796;2.396;2023-07-31T17:55:55;100611.47;;;23.49;61.69
62779;BME280;48821;48.796;2.396;2023-07-31T17:57:06;100611.34;;;23.51;62.27
62779;BME280;48821;48.796;2.396;2023-07-31T17:58:16;100605.97;;;23.51;61.89
62779;BME280;48821;48.796;2.396;2023-07-31T17:59:27;100614.88;;;23.52;61.77
62779;BME280;48821;48.796;2.396;2023-07-31T18:00:39;100604.03;;;23.53;61.50
62779;BME280;48821;48.796;2.396;2023-07-31T18:01:50;100598.66;;;23.53;61.05
62779;BME280;48821;48.796;2.396;2023-07-31T18:03:01;100597.66;;;23.54;61.14
62779;BME280;48821;48.796;2.396;2023-07-31T18:04:13;100599.34;;;23.55;60.67
62779;BME280;48821;48.796;2.396;2023-07-31T18:05:23;100598.50;;;23.55;61.34
62779;BME280;48821;48.796;2.396;2023-07-31T18:06:34;100603.03;;;23.54;61.29
62779;BME280;48821;48.796;2.396;2023-07-31T18:07:45;100596.69;;;23.55;61.26
62779;BME280;48821;48.796;2.396;2023-07-31T18:08:57;100599.34;;;23.55;61.17
62779;BME280;48821;48.796;2.396;2023-07-31T18:10:07;100600.06;;;23.57;61.20
62779;BME280;48821;48.796;2.396;2023-07-31T18:11:20;100599.06;;;23.58;61.47
62779;BME280;48821;48.796;2.396;2023-07-31T18:12:31;100593.69;;;23.58;61.15
62779;BME280;48821;48.796;2.396;2023-07-31T18:13:42;100586.66;;;23.57;61.25
62779;BME280;48821;48.796;2.396;2023-07-31T18:14:53;100576.78;;;23.58;61.39
62779;BME280;48821;48.796;2.396;2023-07-31T18:16:03;100588.34;;;23.58;61.10
62779;BME280;48821;48.796;2.396;2023-07-31T18:17:14;100585.66;;;23.58;60.87
62779;BME280;48821;48.796;2.396;2023-07-31T18:18:26;100580.28;;;23.58;60.95
62779;BME280;48821;48.796;2.396;2023-07-31T18:19:37;100582.00;;;23.59;60.80
62779;BME280;48821;48.796;2.396;2023-07-31T18:20:48;100585.53;;;23.60;60.91
62779;BME280;48821;48.796;2.396;2023-07-31T18:21:58;100583.69;;;23.60;60.69
62779;BME280;48821;48.796;2.396;2023-07-31T18:23:09;100585.38;;;23.62;60.74
62779;BME280;48821;48.796;2.396;2023-07-31T18:24:20;100577.31;;;23.62;61.14
62779;BME280;48821;48.796;2.396;2023-07-31T18:25:31;100579.16;;;23.61;60.74
62779;BME280;48821;48.796;2.396;2023-07-31T18:26:42;100581.72;;;23.63;61.22
62779;BME280;48821;48.796;2.396;2023-07-31T18:27:53;100577.19;;;23.63;60.89
62779;BME280;48821;48.796;2.396;2023-07-31T18:29:04;100572.66;;;23.64;61.10
62779;BME280;48821;48.796;2.396;2023-07-31T18:30:15;100585.09;;;23.65;61.01
62779;BME280;48821;48.796;2.396;2023-07-31T18:31:26;100575.22;;;23.65;60.60
62779;BME280;48821;48.796;2.396;2023-07-31T18:32:37;100574.22;;;23.66;61.39
62779;BME280;48821;48.796;2.396;2023-07-31T18:33:48;100577.75;;;23.67;60.71
62779;BME280;48821;48.796;2.396;2023-07-31T18:34:58;100592.03;;;23.67;60.80
62779;BME280;48821;48.796;2.396;2023-07-31T18:36:09;100584.81;;;23.68;60.52